x

Columbia River Bar - 20nm West Of Columbia River Mouth (46029) Wave Buoy

4:50pm - Thu 17th Apr 2014 All times are PDT. -7 hours from GMT.

  • Sig Wave height 8.2ft
  • Swell Direction
  • Peak Period 11s
  • Average Period 6s
  • Wind
    27mph, 31mph gusts
  • Sea Temp 52°f
  • Air Temp 50°f
  • Sea Pressure 1009.5mb
  • Columbia River Bar - 20nm West Of Columbia River Mouth
  • Columbia River Bar - 20nm West Of Columbia River Mouth

More Historic Weather Station data

Upgrade to MSW Pro to gain access to the past 30 days of data for over 8000 Wavebouys and Weather Stations around the globe.

Join Pro

Comparision Forecast

View Surf forecast
   
Thu 04/17 4:50pm 8ft 11s 6s 27 31 mph 1009.5mb 52f 50f
3:50pm 7.5ft 11s 6s 22 31 mph 1007.6mb 52f 52f
2:50pm 8ft 12s 6s 25 31 mph 1007.7mb 52f 52f
1:50pm 8ft 11s 7s 25 31 mph 1008.5mb 52f 52f
12:50pm 7.5ft 12s 7s 20 25 mph 1009mb 52f 52f
11:50am 7.5ft 11s 7s 22 25 mph 1009.5mb 52f 52f
10:50am 7ft 12s 7s 18 22 mph 1009.8mb 52f 52f
9:50am 7.5ft 12s 7s 18 20 mph 1010.2mb 52f 52f
8:50am 7.5ft 12s 8s 13 18 mph 1010.8mb 52f 52f
7:50am 8ft 12s 8s 13 16 mph 1011.1mb 52f 52f
6:50am 8ft 11s 7s 16 18 mph 1011.1mb 52f 52f
5:50am 7.5ft 12s 7s 16 18 mph 1011.4mb 52f 52f
4:50am 8ft 11s 7s 16 18 mph 1011.5mb 52f 52f
3:50am 8ft 11s 8s 13 16 mph 1012.1mb 52f 52f
2:50am 8ft 11s 7s 13 16 mph 1012.9mb 52f 52f
1:50am 8.5ft 12s 8s 13 16 mph 1013.6mb 52f 52f
12:50am 9.5ft 11s 8s 13 18 mph 1013.9mb 52f 52f
Wed 04/16 11:50pm 8ft 13s 8s 13 16 mph 1014mb 52f 52f
10:50pm 8ft 12s 8s 11 13 mph 1014.4mb 52f 52f
9:50pm 8ft 12s 7s 13 16 mph 1015.3mb 52f 52f
8:50pm 8.5ft 13s 7s 13 18 mph 1015.2mb 52f 52f
7:50pm 7.5ft 11s 7s 16 18 mph 1015.2mb 52f 52f
6:50pm 8ft 10s 6s 16 20 mph 1015.5mb 52f 52f
5:50pm 8ft 13s 7s 18 20 mph 1016mb 52f 52f
4:50pm 8ft 13s 6s 20 22 mph 1016.3mb 52f 51f
3:50pm 8ft 13s 6s 22 27 mph 1016.6mb 52f 52f
2:50pm 8ft 9s 6s 25 27 mph 1016.8mb 52f 52f
1:50pm 7ft 9s 6s 22 27 mph 1017.1mb 52f 51f
12:50pm 7ft 9s 6s 25 29 mph 1017.4mb 52f 51f
11:50am 7ft 11s 6s 22 27 mph 1018mb 52f 51f
10:50am 6.5ft 9s 6s 22 27 mph 1017.9mb 52f 51f
9:50am 6ft 9s 6s 22 25 mph 1017.8mb 52f 51f
8:50am 7ft 10s 6s 18 20 mph 1018.1mb 52f 52f
7:50am 7ft 12s 6s 16 20 mph 1018.3mb 52f 52f
6:50am 7ft 10s 6s 16 18 mph 1018.4mb 52f 52f
5:50am 7ft 9s 6s 16 18 mph 1018.5mb 52f 52f
4:50am 6.5ft 9s 7s 16 25 mph 1018.8mb 52f 50f
3:50am 7ft 10s 7s 13 18 mph 1018.9mb 52f 52f
2:50am 6ft 9s 7s 13 16 mph 1019.2mb 52f 51f
1:50am 6.5ft 10s 7s 11 13 mph 1019.6mb 52f 51f
12:50am 6ft 10s 6s 13 16 mph 1020mb 52f 51f
Tue 04/15 11:50pm 7ft 10s 6s 18 22 mph 1020mb 52f 51f
10:50pm 7ft 10s 6s 13 18 mph 1020.2mb 52f 51f
9:50pm 7ft 10s 6s 18 20 mph 1020.6mb 52f 51f
8:50pm 7ft 10s 6s 18 20 mph 1020.7mb 52f 51f
7:50pm 8ft 11s 6s 18 20 mph 1020.7mb 52f 51f
6:50pm 7ft 10s 6s 22 27 mph 1020.6mb 52f 50f
5:50pm 7ft 11s 6s 20 22 mph 1021.9mb 52f 50f
4:50pm 6.5ft 11s 6s 20 22 mph 1022.5mb 53f 51f
3:50pm 8ft 10s 7s 18 20 mph 1022.8mb 53f 51f
2:50pm 7.5ft 11s 7s 16 18 mph 1023.2mb 52f 51f
1:50pm 8ft 11s 8s 13 16 mph 1023.7mb 52f 51f
12:50pm 8ft 11s 8s 11 16 mph 1024.4mb 52f 51f
11:50am 8ft 11s 8s 9 11 mph 1024.8mb 52f 51f
10:50am 8ft 12s 8s 7 9 mph 1024.8mb 52f 51f
9:50am 8ft 12s 8s 7 9 mph 1024.6mb 52f 50f
8:50am 8ft 13s 8s 9 11 mph 1024.2mb 52f 50f
7:50am 9ft 12s 8s 11 13 mph 1023.9mb 52f 50f
6:50am 7ft 11s 7s 13 16 mph 1024mb 52f 50f
5:50am 6.5ft 12s 7s 16 20 mph 1023.9mb 52f 50f
4:50am 6.5ft 13s 6s 16 18 mph 1024mb 52f 49f
3:50am 5.5ft 6s 6s 16 18 mph 1023.9mb 52f 50f
2:50am 6ft 7s 6s 16 18 mph 1024.2mb 52f 50f
1:50am 6ft 6s 6s 13 16 mph 1024.4mb 52f 50f
12:50am 6ft 6s 6s 13 18 mph 1024.3mb 52f 51f
Mon 04/14 11:50pm 6ft 6s 6s 16 20 mph 1024.3mb 52f 50f
10:50pm 6.5ft 6s 6s 18 22 mph 1024.4mb 52f 51f
9:50pm 6.5ft 6s 6s 16 18 mph 1024.1mb 52f 51f
8:50pm 6ft 14s 6s 18 20 mph 1023.9mb 52f 51f
7:50pm 6ft 14s 6s 20 22 mph 1023.8mb 53f 51f
6:50pm 6.5ft 14s 6s 18 22 mph 1023.8mb 53f 51f
5:50pm 6ft 14s 6s 18 20 mph 1023.6mb 53f 51f
4:50pm 5ft 14s 5s 18 20 mph 1023.3mb 53f 51f
3:50pm 5.5ft 14s 5s 20 22 mph 1023.6mb 52f 50f
2:50pm 5.5ft 14s 5s 18 22 mph 1023.4mb 52f 51f
1:50pm 6ft 6s 5s 20 25 mph 1023mb 52f 51f
12:50pm 6ft 14s 6s 18 22 mph 1022.7mb 52f 51f
11:50am 5ft 12s 5s 18 22 mph 1022.1mb 52f 51f
10:50am 5ft 14s 6s 22 25 mph 1021mb 52f 51f
9:50am 5ft 14s 6s 16 18 mph 1020.3mb 52f 52f
8:50am 4.5ft 13s 5s 20 25 mph 1019.7mb 52f 52f
7:50am 4.5ft 14s 8s 16 20 mph 1019.5mb 52f 53f
6:50am 4.5ft 14s 8s 4 7 mph 1019mb 52f 53f
5:50am 4.5ft 14s 8s 4 7 mph 1018.4mb 52f 53f
4:50am 4.5ft 15s 8s 7
mph
1018.3mb 52f 53f
3:50am 4.5ft 15s 7s 7 9 mph 1018.4mb 52f 54f
2:50am 4.5ft 14s 7s 9 11 mph 1018.4mb 52f 55f
1:50am 4.5ft 15s 7s 11 13 mph 1018.7mb 52f 56f
12:50am 4.5ft 15s 7s 9 11 mph 1019.2mb 52f 54f